createdAt,value
2022-11-02T00:00:03.661Z,98028.06
2022-11-02T00:02:30.052Z,98020.81
2022-11-02T00:04:56.411Z,98012.22
2022-11-02T00:07:22.716Z,98013.56
2022-11-02T00:09:49.010Z,98015.91
2022-11-02T00:12:15.342Z,98015.34
2022-11-02T00:14:41.667Z,97997.22
2022-11-02T00:17:08.009Z,98015.25
2022-11-02T00:19:34.321Z,98011.22
2022-11-02T00:22:00.598Z,98006.38
2022-11-02T00:24:27.057Z,98002.56
2022-11-02T00:26:53.387Z,98020.69
2022-11-02T00:29:20.331Z,98002.47
2022-11-02T00:31:46.680Z,98006.69
2022-11-02T00:34:12.994Z,97999.16
2022-11-02T00:36:39.337Z,97997.00
2022-11-02T00:39:05.656Z,97994.00
2022-11-02T00:41:32.075Z,97990.75
2022-11-02T00:43:58.474Z,97997.38
2022-11-02T00:46:24.812Z,97988.84
2022-11-02T00:48:51.148Z,97999.97
2022-11-02T00:51:17.459Z,97990.84
2022-11-02T00:53:43.782Z,97994.00
2022-11-02T00:56:10.230Z,97999.81
2022-11-02T00:58:36.505Z,97993.91
2022-11-02T01:01:02.856Z,97997.88
2022-11-02T01:03:29.165Z,97985.00
2022-11-02T01:05:55.586Z,97986.31
2022-11-02T01:08:21.842Z,97981.47
2022-11-02T01:10:48.529Z,97960.31
2022-11-02T01:13:14.939Z,97989.34
2022-11-02T01:15:41.346Z,97986.34
2022-11-02T01:18:08.861Z,97983.91
2022-11-02T01:20:35.281Z,97982.81
2022-11-02T01:23:01.589Z,97980.34
2022-11-02T01:25:29.146Z,97975.25
2022-11-02T01:27:55.414Z,97994.41
2022-11-02T01:30:21.679Z,97987.69
2022-11-02T01:32:48.154Z,97986.34
2022-11-02T01:35:14.571Z,97976.69
2022-11-02T01:37:42.140Z,97979.59
2022-11-02T01:40:08.552Z,97973.72
2022-11-02T01:42:34.820Z,97987.28
2022-11-02T01:45:01.176Z,97969.66
2022-11-02T01:47:27.468Z,97962.16
2022-11-02T01:49:53.740Z,97965.84
2022-11-02T01:52:20.095Z,97967.94
2022-11-02T01:54:46.363Z,97961.84
2022-11-02T01:57:12.740Z,97961.25
2022-11-02T01:59:39.056Z,97948.16
2022-11-02T02:02:05.430Z,97941.19
2022-11-02T02:04:34.639Z,97943.28
2022-11-02T02:07:00.949Z,97935.53
2022-11-02T02:09:27.180Z,97942.19
2022-11-02T02:11:53.482Z,97930.69
2022-11-02T02:14:19.736Z,97938.13
2022-11-02T02:16:46.320Z,97935.69
2022-11-02T02:19:12.599Z,97932.44
2022-11-02T02:21:38.932Z,97937.22
2022-11-02T02:24:05.208Z,97926.56
2022-11-02T02:26:31.565Z,97934.00
2022-11-02T02:28:57.883Z,97924.38
2022-11-02T02:31:25.012Z,97933.44
2022-11-02T02:33:51.329Z,97927.28
2022-11-02T02:36:17.620Z,97924.84
2022-11-02T02:38:43.881Z,97916.28
2022-11-02T02:41:11.002Z,97910.13
2022-11-02T02:43:38.737Z,97914.91
2022-11-02T02:46:06.300Z,97917.81
2022-11-02T02:48:32.734Z,97921.53
2022-11-02T02:50:59.066Z,97904.72
2022-11-02T02:53:25.349Z,97896.97
2022-11-02T02:55:51.701Z,97898.03
2022-11-02T02:58:18.067Z,97904.97
2022-11-02T03:00:44.325Z,97899.06
2022-11-02T03:03:10.645Z,97884.91
2022-11-02T03:05:36.972Z,97898.47
2022-11-02T03:08:03.574Z,97896.88
2022-11-02T03:10:31.681Z,97887.25
2022-11-02T03:12:58.573Z,97892.81
2022-11-02T03:15:24.869Z,97894.91
2022-11-02T03:17:51.521Z,97885.56
2022-11-02T03:20:17.845Z,97890.06
2022-11-02T03:22:44.133Z,97881.75
2022-11-02T03:25:10.580Z,97904.13
2022-11-02T03:27:37.020Z,97922.19
2022-11-02T03:30:03.369Z,97922.44
2022-11-02T03:32:29.686Z,97928.78
2022-11-02T03:34:56.012Z,97928.00
2022-11-02T03:37:22.348Z,97926.38
2022-11-02T03:39:48.641Z,97922.09
2022-11-02T03:42:14.944Z,97920.25
2022-11-02T03:44:41.346Z,97934.34
2022-11-02T03:47:07.648Z,97931.09
2022-11-02T03:49:33.925Z,97951.84
2022-11-02T03:52:00.194Z,97940.38
2022-11-02T03:54:26.467Z,97944.88
2022-11-02T03:56:53.170Z,97934.22
2022-11-02T03:59:19.709Z,97950.44
2022-11-02T04:01:46.716Z,97938.97
2022-11-02T04:04:13.057Z,97947.22
2022-11-02T04:06:39.313Z,97958.69
2022-11-02T04:09:05.575Z,97953.59
2022-11-02T04:11:31.924Z,97942.13
2022-11-02T04:13:58.230Z,97948.50
2022-11-02T04:16:27.600Z,97943.38
2022-11-02T04:18:54.606Z,97953.25
2022-11-02T04:21:21.082Z,97946.28
2022-11-02T04:23:47.405Z,97948.16
2022-11-02T04:26:13.674Z,97953.72
2022-11-02T04:28:40.012Z,97961.69
2022-11-02T04:31:06.309Z,97967.03
2022-11-02T04:33:33.371Z,97967.25
2022-11-02T04:35:59.629Z,97969.34
2022-11-02T04:38:27.936Z,97978.38
2022-11-02T04:40:54.312Z,97981.06
2022-11-02T04:43:20.698Z,97985.56
2022-11-02T04:45:47.133Z,97979.69
2022-11-02T04:48:13.386Z,97986.03
2022-11-02T04:50:39.644Z,97981.78
2022-11-02T04:53:07.288Z,97991.84
2022-11-02T04:55:33.613Z,97981.44
2022-11-02T04:57:59.935Z,97985.13
2022-11-02T05:00:26.254Z,97984.31
2022-11-02T05:02:52.646Z,97984.31
2022-11-02T05:05:19.041Z,97990.91
2022-11-02T05:07:46.148Z,97990.09
2022-11-02T05:10:12.463Z,98004.47
2022-11-02T05:12:38.789Z,97993.00
2022-11-02T05:15:05.069Z,97994.28
2022-11-02T05:17:31.449Z,97982.00
2022-11-02T05:19:57.742Z,97997.16
2022-11-02T05:22:24.000Z,97985.72
2022-11-02T05:24:50.406Z,97985.97
2022-11-02T05:27:16.783Z,97990.69
2022-11-02T05:29:43.219Z,97993.59
2022-11-02T05:32:09.559Z,97991.97
2022-11-02T05:34:35.984Z,98006.31
2022-11-02T05:37:03.366Z,97999.59
2022-11-02T05:39:29.715Z,98004.09
2022-11-02T05:41:56.018Z,98003.31
2022-11-02T05:44:22.358Z,97996.13
2022-11-02T05:46:48.674Z,98002.75
2022-11-02T05:49:15.138Z,97976.81
2022-11-02T05:51:41.473Z,98001.56
2022-11-02T05:54:07.820Z,97998.31
2022-11-02T05:56:34.108Z,97996.72
2022-11-02T05:59:01.935Z,98015.34
2022-11-02T06:01:28.319Z,98022.75
2022-11-02T06:03:54.738Z,98013.16
2022-11-02T06:06:21.165Z,98012.34
2022-11-02T06:08:47.421Z,98034.69
2022-11-02T06:11:13.707Z,98024.03
2022-11-02T06:13:40.022Z,98027.72
2022-11-02T06:16:07.017Z,98027.94
2022-11-02T06:18:33.589Z,98039.41
2022-11-02T06:21:00.577Z,98032.47
2022-11-02T06:23:27.031Z,98035.34
2022-11-02T06:25:53.419Z,98050.50
2022-11-02T06:28:20.254Z,98039.06
2022-11-02T06:30:46.550Z,98044.38
2022-11-02T06:33:13.420Z,98046.22
2022-11-02T06:35:40.116Z,98056.06
2022-11-02T06:38:06.380Z,98041.25
2022-11-02T06:40:33.317Z,98042.66
2022-11-02T06:43:17.065Z,98042.91
2022-11-02T06:45:44.209Z,98053.22
2022-11-02T06:48:10.591Z,98056.56
2022-11-02T06:50:36.974Z,98065.47
2022-11-02T06:53:04.005Z,98069.84
2022-11-02T06:55:30.932Z,98073.63
2022-11-02T06:57:57.268Z,98088.81
2022-11-02T07:00:24.132Z,98083.56
2022-11-02T07:02:50.671Z,98082.41
2022-11-02T07:05:17.975Z,98082.00
2022-11-02T07:07:45.294Z,98082.69
2022-11-02T07:10:11.584Z,98094.84
2022-11-02T07:12:37.918Z,98095.84
2022-11-02T07:15:05.587Z,98082.72
2022-11-02T07:17:32.383Z,98116.84
2022-11-02T07:19:58.873Z,98119.47
2022-11-02T07:22:25.260Z,98118.13
2022-11-02T07:24:51.564Z,98119.66
2022-11-02T07:27:17.911Z,98128.63
2022-11-02T07:29:44.211Z,98125.25
2022-11-02T07:32:10.497Z,98125.25
2022-11-02T07:34:36.906Z,98133.53
2022-11-02T07:37:03.208Z,98119.91
2022-11-02T07:39:29.622Z,98130.09
2022-11-02T07:41:55.935Z,98124.91
2022-11-02T07:44:22.265Z,98127.03
2022-11-02T07:46:48.528Z,98128.63
2022-11-02T07:49:20.193Z,98131.38
2022-11-02T07:51:47.718Z,98134.81
2022-11-02T07:54:14.648Z,98131.81
2022-11-02T07:56:41.057Z,98134.72
2022-11-02T07:59:07.425Z,98139.34
2022-11-02T08:01:33.730Z,98134.81
2022-11-02T08:04:00.200Z,98133.16
2022-11-02T08:06:42.447Z,98137.72
2022-11-02T08:09:11.293Z,98141.44
2022-11-02T08:11:37.613Z,98126.22
2022-11-02T08:14:03.908Z,98122.47
2022-11-02T08:16:30.231Z,98131.31
2022-11-02T08:18:59.390Z,98130.41
2022-11-02T08:27:46.563Z,98138.38
2022-11-02T08:33:18.411Z,98144.09
2022-11-02T08:38:42.899Z,98142.13
2022-11-02T08:41:09.146Z,98140.00
2022-11-02T08:43:35.487Z,98147.53
2022-11-02T08:46:14.829Z,98149.75
2022-11-02T08:48:42.259Z,98158.09
2022-11-02T08:51:08.595Z,98152.22
2022-11-02T08:53:37.606Z,98158.94
2022-11-02T08:56:05.397Z,98156.03
2022-11-02T08:58:33.679Z,98164.84
2022-11-02T09:01:00.797Z,98166.22
2022-11-02T09:03:28.936Z,98151.78
2022-11-02T09:05:55.610Z,98164.44
2022-11-02T09:08:22.063Z,98177.25
2022-11-02T09:10:50.478Z,98185.34
2022-11-02T09:13:17.396Z,98192.31
2022-11-02T09:15:44.137Z,98188.28
2022-11-02T09:18:11.017Z,98193.63
2022-11-02T09:20:37.637Z,98182.34
2022-11-02T09:23:04.286Z,98200.59
2022-11-02T09:25:30.831Z,98203.56
2022-11-02T09:27:58.001Z,98194.97
2022-11-02T09:30:24.403Z,98209.50
2022-11-02T09:32:50.736Z,98202.53
2022-11-02T09:35:17.119Z,98203.56
2022-11-02T09:37:49.922Z,98220.13
2022-11-02T09:40:17.651Z,98226.56
2022-11-02T09:42:44.285Z,98215.28
2022-11-02T09:45:10.766Z,98212.88
2022-11-02T15:03:23.513Z,98292.31
2022-11-02T15:05:50.296Z,98288.25
2022-11-02T15:08:16.589Z,98289.06
2022-11-02T15:10:42.914Z,98285.56
2022-11-02T15:13:11.994Z,98282.09
2022-11-02T15:15:42.195Z,98278.03
2022-11-02T15:18:08.893Z,98280.16
2022-11-02T15:20:35.174Z,98277.72
2022-11-02T15:23:01.499Z,98289.50
2022-11-02T15:25:27.840Z,98274.50
2022-11-02T15:27:54.168Z,98283.59
2022-11-02T15:30:25.292Z,98279.28
2022-11-02T15:32:58.900Z,98278.50
2022-11-02T15:35:27.684Z,98285.72
2022-11-02T15:38:15.970Z,98284.09
2022-11-02T15:40:40.629Z,98276.31
2022-11-02T15:43:07.391Z,98285.41
2022-11-02T15:45:47.806Z,98286.47
2022-11-02T15:48:16.695Z,98285.66
2022-11-02T15:50:43.177Z,98293.09
2022-11-02T15:53:22.971Z,98292.53
2022-11-02T15:55:50.129Z,98294.44
2022-11-02T15:58:16.406Z,98290.13
2022-11-02T16:00:43.998Z,98297.59
2022-11-02T16:03:10.481Z,98292.72
2022-11-02T16:05:36.771Z,98287.88
2022-11-02T16:08:10.874Z,98298.28
2022-11-02T16:10:37.808Z,98295.03
2022-11-02T16:13:04.107Z,98295.03
2022-11-02T16:15:30.601Z,98289.41
2022-11-02T16:17:57.725Z,98287.38
2022-11-02T16:20:24.026Z,98294.75
2022-11-02T16:22:50.350Z,98291.69
2022-11-02T16:25:17.119Z,98302.84
2022-11-02T16:27:43.499Z,98304.91
2022-11-02T16:30:09.851Z,98301.63
2022-11-02T16:32:36.131Z,98306.31
2022-11-02T16:35:02.412Z,98304.56
2022-11-02T16:37:28.773Z,98310.00
2022-11-02T16:39:55.047Z,98307.19
2022-11-02T16:42:21.297Z,98306.19
2022-11-02T16:44:47.832Z,98309.81
2022-11-02T16:47:14.807Z,98300.22
2022-11-02T16:49:41.066Z,98295.19
2022-11-02T16:52:07.691Z,98301.97
2022-11-02T16:54:33.992Z,98292.63
2022-11-02T16:57:00.927Z,98287.03
2022-11-02T16:59:27.189Z,98285.75
2022-11-02T17:01:53.569Z,98297.31
2022-11-02T17:04:19.953Z,98296.53
2022-11-02T17:06:46.254Z,98291.75
2022-11-02T17:09:12.551Z,98289.09
2022-11-02T17:11:38.921Z,98282.94
2022-11-02T17:14:05.204Z,98290.25
2022-11-02T17:16:31.506Z,98288.41
2022-11-02T17:18:57.872Z,98287.59
2022-11-02T17:21:24.289Z,98291.41
2022-11-02T17:23:51.217Z,98293.28
2022-11-02T17:26:17.592Z,98297.88
2022-11-02T17:28:43.827Z,98296.81
2022-11-02T17:31:10.152Z,98297.34
2022-11-02T17:33:36.446Z,98300.84
2022-11-02T17:36:02.708Z,98293.84
2022-11-02T17:38:29.137Z,98297.28
2022-11-02T17:40:55.488Z,98295.09
2022-11-02T17:43:22.285Z,98285.63
2022-11-02T17:45:48.599Z,98289.34
2022-11-02T17:48:14.870Z,98293.88
2022-11-02T17:50:41.147Z,98301.09
2022-11-02T17:53:07.746Z,98298.66
2022-11-02T17:55:34.044Z,98304.00
2022-11-02T17:58:00.948Z,98295.91
2022-11-02T18:00:27.292Z,98301.47
2022-11-02T18:02:53.648Z,98300.66
2022-11-02T18:05:19.976Z,98305.72
2022-11-02T18:07:46.488Z,98306.47
2022-11-02T18:10:12.967Z,98301.09
2022-11-02T18:12:39.492Z,98299.97
2022-11-02T18:15:05.941Z,98295.38
2022-11-02T18:17:34.964Z,98290.75
2022-11-02T18:20:02.372Z,98294.19
2022-11-02T18:22:32.400Z,98290.41
2022-11-02T18:24:59.138Z,98291.69
2022-11-02T18:27:28.668Z,98287.34
2022-11-02T18:29:55.219Z,98280.06
2022-11-02T18:32:21.503Z,98284.56
2022-11-02T18:34:48.411Z,98291.50
2022-11-02T18:37:14.733Z,98285.03
2022-11-02T18:39:41.049Z,98279.38
2022-11-02T18:42:07.653Z,98291.16
2022-11-02T18:44:33.905Z,98296.75
2022-11-02T18:47:00.840Z,98291.09
2022-11-02T18:49:27.151Z,98289.97
2022-11-02T18:51:53.493Z,98287.00
2022-11-02T18:54:19.965Z,98289.38
2022-11-02T18:56:46.318Z,98279.97
2022-11-02T18:59:13.297Z,98274.06
2022-11-02T19:01:40.222Z,98286.31
2022-11-02T19:04:14.461Z,98286.84
2022-11-02T19:06:43.408Z,98279.56
2022-11-02T19:09:09.732Z,98278.44
2022-11-02T19:11:36.009Z,98291.50
2022-11-02T19:14:02.367Z,98283.97
2022-11-02T19:16:28.689Z,98284.44
2022-11-02T19:18:54.984Z,98293.56
2022-11-02T19:21:21.311Z,98289.50
2022-11-02T19:23:47.945Z,98294.31
2022-11-02T19:26:14.300Z,98299.38
2022-11-02T19:28:41.168Z,98301.47
2022-11-02T19:31:07.524Z,98295.56
2022-11-02T19:33:33.918Z,98292.31
2022-11-02T19:36:01.488Z,98291.75
2022-11-02T19:38:27.775Z,98291.19
2022-11-02T19:40:54.637Z,98291.44
2022-11-02T19:43:20.998Z,98291.69
2022-11-02T19:45:47.280Z,98286.34
2022-11-02T19:48:13.582Z,98295.44
2022-11-02T19:50:41.048Z,98290.09
2022-11-02T19:53:07.348Z,98304.50
2022-11-02T19:55:33.675Z,98297.56
2022-11-02T19:57:59.964Z,98297.56
2022-11-02T20:00:26.405Z,98300.78
2022-11-02T20:02:53.386Z,98294.13
2022-11-02T20:05:19.763Z,98287.47
2022-11-02T20:07:46.723Z,98301.72
2022-11-02T20:10:13.272Z,98294.31
2022-11-02T20:12:39.657Z,98289.81
2022-11-02T20:15:05.926Z,98295.00
2022-11-02T20:17:46.572Z,98296.94
2022-11-02T20:20:19.593Z,98299.16
2022-11-02T20:22:45.914Z,98294.69
2022-11-02T20:25:12.427Z,98291.25
2022-11-02T20:27:38.761Z,98303.06
2022-11-02T20:30:05.112Z,98303.94
2022-11-02T20:32:31.479Z,98296.75
2022-11-02T20:34:57.733Z,98295.22
2022-11-02T20:37:24.028Z,98282.09
2022-11-02T20:39:51.369Z,98291.78
2022-11-02T20:42:17.677Z,98292.09
2022-11-02T20:44:44.005Z,98293.22
2022-11-02T20:47:10.424Z,98290.28
2022-11-02T20:49:49.935Z,98292.44
2022-11-02T20:52:17.397Z,98292.19
2022-11-02T20:54:43.875Z,98282.28
2022-11-02T20:57:10.159Z,98282.53
2022-11-02T20:59:36.928Z,98286.03
2022-11-02T21:02:03.307Z,98289.50
2022-11-02T21:04:29.918Z,98280.66
2022-11-02T21:06:56.813Z,98272.88
2022-11-02T21:09:23.129Z,98268.31
2022-11-02T21:11:49.429Z,98269.63
2022-11-02T21:14:15.753Z,98272.31
2022-11-02T21:16:42.137Z,98258.91
2022-11-02T21:19:08.418Z,98259.69
2022-11-02T21:21:35.025Z,98260.56
2022-11-02T21:24:01.329Z,98245.31
2022-11-02T21:26:27.728Z,98254.22
2022-11-02T21:28:54.214Z,98236.56
2022-11-02T21:31:20.560Z,98242.47
2022-11-02T21:33:46.846Z,98237.94
2022-11-02T21:36:13.786Z,98233.38
2022-11-02T21:38:40.113Z,98225.06
2022-11-02T21:41:07.491Z,98211.91
2022-11-02T21:43:33.764Z,98218.34
2022-11-02T21:46:02.820Z,98217.78
2022-11-02T21:50:56.596Z,98222.03
2022-11-02T21:53:23.226Z,98217.19
2022-11-02T21:55:49.802Z,98221.44
2022-11-02T21:58:16.335Z,98218.72
2022-11-02T22:00:42.669Z,98196.69
2022-11-02T22:03:09.382Z,98198.75
2022-11-02T22:05:36.697Z,98183.16
2022-11-02T22:08:02.978Z,98175.56
2022-11-02T22:10:32.150Z,98163.69
2022-11-02T22:12:58.455Z,98163.09
2022-11-02T22:15:24.783Z,98156.63
2022-11-02T22:17:52.333Z,98153.53
2022-11-02T22:20:18.751Z,98144.09
2022-11-02T22:22:45.375Z,98158.50
2022-11-02T22:25:11.652Z,98149.28
2022-11-02T22:27:38.202Z,98143.31
2022-11-02T22:30:04.836Z,98156.91
2022-11-02T22:32:31.190Z,98149.34
2022-11-02T22:34:57.439Z,98150.59
2022-11-02T22:37:23.698Z,98144.38
2022-11-02T22:39:50.058Z,98148.31
2022-11-02T22:42:16.443Z,98158.16
2022-11-02T22:44:43.289Z,98148.44
2022-11-02T22:47:09.749Z,98138.97
2022-11-02T22:49:36.070Z,98142.63
2022-11-02T22:52:02.655Z,98133.72
2022-11-02T22:54:28.974Z,98140.06
2022-11-02T22:56:55.262Z,98146.16
2022-11-02T22:59:21.594Z,98141.56
2022-11-02T23:01:48.029Z,98136.38
2022-11-02T23:04:14.447Z,98136.28
2022-11-02T23:06:40.702Z,98129.84
2022-11-02T23:09:07.349Z,98131.88
2022-11-02T23:11:33.640Z,98129.13
2022-11-02T23:14:00.146Z,98126.41
2022-11-02T23:16:26.443Z,98135.94
2022-11-02T23:18:52.729Z,98129.97
2022-11-02T23:21:19.261Z,98126.16
2022-11-02T23:23:45.527Z,98127.94
2022-11-02T23:26:12.907Z,98127.81
2022-11-02T23:28:39.302Z,98126.72
2022-11-02T23:31:05.668Z,98112.47
2022-11-02T23:33:31.995Z,98117.47
2022-11-02T23:35:58.271Z,98111.00
2022-11-02T23:38:24.655Z,98114.41
2022-11-02T23:40:51.003Z,98114.88
2022-11-02T23:43:17.272Z,98114.53
2022-11-02T23:45:43.602Z,98107.28
2022-11-02T23:48:10.006Z,98105.34
2022-11-02T23:50:36.542Z,98111.97
2022-11-02T23:53:02.909Z,98112.91
2022-11-02T23:55:29.329Z,98114.47
2022-11-02T23:57:55.969Z,98112.25
